Time;durP1;ratioP1;P1;durP2;ratioP2;P2;SDS_P1;SDS_P2;PMS_P1;PMS_P2;Temp;Humidity;BMP_temperature;BMP_pressure;BME280_temperature;BME280_humidity;BME280_pressure;Samples;Min_cycle;Max_cycle;Signal;HPM_P1;HPM_P2
2021/05/24 06:12:11;;;;;;;2.35;0.80;;;11.50;99.90;;;;;;3630877;39;783306;-89
2021/05/24 06:14:37;;;;;;;2.97;0.85;;;11.50;99.90;;;;;;3629453;39;20044;-86
2021/05/24 06:17:05;;;;;;;1.48;0.73;;;11.50;99.90;;;;;;3631560;39;20046;-89
2021/05/24 06:19:32;;;;;;;3.08;1.10;;;11.50;99.90;;;;;;3618482;39;20034;-88
2021/05/24 06:21:57;;;;;;;3.80;1.00;;;11.50;99.90;;;;;;3628307;39;20042;-87
2021/05/24 06:24:23;;;;;;;2.45;0.80;;;11.50;99.90;;;;;;3638196;39;20057;-89
2021/05/24 06:26:52;;;;;;;0.80;0.80;;;11.60;99.90;;;;;;3635849;39;20039;-89
2021/05/24 06:29:22;;;;;;;1.60;0.77;;;11.50;99.90;;;;;;3626960;39;20418;-88
2021/05/24 06:31:49;;;;;;;1.35;0.70;;;11.50;99.90;;;;;;3627755;39;20138;-87
2021/05/24 06:34:15;;;;;;;2.50;0.82;;;11.60;99.90;;;;;;3636129;39;20061;-85
2021/05/24 06:36:41;;;;;;;2.08;0.80;;;11.60;99.90;;;;;;3634162;39;20050;-86
2021/05/24 06:39:07;;;;;;;3.80;1.00;;;11.50;99.90;;;;;;3637847;39;20388;-83
2021/05/24 06:41:32;;;;;;;1.55;0.70;;;11.50;99.90;;;;;;3630109;39;20095;-83
2021/05/24 06:43:59;;;;;;;2.17;1.20;;;11.40;99.90;;;;;;3642384;39;20054;-84
2021/05/24 06:46:25;;;;;;;4.68;1.08;;;11.50;99.90;;;;;;3641924;39;20042;-83
2021/05/24 06:48:51;;;;;;;2.33;0.90;;;11.50;99.90;;;;;;3644300;39;20613;-86
2021/05/24 06:51:16;;;;;;;3.10;0.75;;;11.50;99.90;;;;;;3628292;39;20082;-87
2021/05/24 06:53:42;;;;;;;2.08;1.27;;;11.50;99.90;;;;;;3634670;39;20050;-87
2021/05/24 06:56:08;;;;;;;1.58;0.68;;;11.60;99.90;;;;;;3627636;39;20134;-91
2021/05/24 06:58:33;;;;;;;4.22;0.77;;;11.60;99.90;;;;;;3628608;39;20039;-85
2021/05/24 07:00:59;;;;;;;3.17;1.10;;;11.70;99.90;;;;;;3633924;39;20053;-86
2021/05/24 07:03:25;;;;;;;4.00;0.77;;;11.70;99.90;;;;;;3638963;39;20066;-87
2021/05/24 07:05:50;;;;;;;2.10;0.85;;;11.70;99.90;;;;;;3625097;39;20446;-88
2021/05/24 07:08:16;;;;;;;2.70;0.80;;;11.70;99.90;;;;;;3635848;39;20054;-89
2021/05/24 07:10:42;;;;;;;2.20;1.02;;;11.80;99.90;;;;;;3622501;39;20043;-87
2021/05/24 07:13:08;;;;;;;2.13;0.80;;;11.80;99.90;;;;;;3627877;39;20038;-88
2021/05/24 07:15:34;;;;;;;0.63;0.60;;;11.70;99.90;;;;;;3622701;39;20065;-91
2021/05/24 07:18:00;;;;;;;2.58;0.98;;;11.70;99.90;;;;;;3635020;39;20120;-87
2021/05/24 07:20:26;;;;;;;2.95;1.17;;;11.70;99.90;;;;;;3623949;39;20499;-89
2021/05/24 07:22:52;;;;;;;3.05;1.00;;;11.70;99.90;;;;;;3619069;39;20047;-87
2021/05/24 07:25:17;;;;;;;1.48;0.68;;;11.70;99.90;;;;;;3619918;39;20042;-87
2021/05/24 07:27:44;;;;;;;4.07;0.70;;;11.70;99.90;;;;;;3617380;39;20291;-89
2021/05/24 07:30:10;;;;;;;1.63;1.05;;;11.70;99.90;;;;;;3614035;39;20046;-87
2021/05/24 07:32:36;;;;;;;1.00;0.82;;;11.70;99.90;;;;;;3618924;39;20055;-87
2021/05/24 07:35:03;;;;;;;1.02;0.68;;;11.70;99.90;;;;;;3612652;39;20058;-88
2021/05/24 07:37:29;;;;;;;1.83;0.77;;;11.70;99.90;;;;;;3616963;39;20043;-87
2021/05/24 07:39:55;;;;;;;2.17;0.90;;;11.70;99.90;;;;;;3611247;39;20054;-88
2021/05/24 07:42:21;;;;;;;1.50;0.80;;;11.70;99.90;;;;;;3618347;39;20080;-91
2021/05/24 07:44:46;;;;;;;0.70;0.65;;;11.70;99.90;;;;;;3626707;39;20079;-87
2021/05/24 07:47:12;;;;;;;2.58;0.80;;;11.70;99.90;;;;;;3622327;39;20035;-87
2021/05/24 07:49:38;;;;;;;0.90;0.85;;;11.80;99.90;;;;;;3631693;39;20042;-88
2021/05/24 07:52:04;;;;;;;2.60;0.85;;;11.80;99.90;;;;;;3616056;39;20082;-89
2021/05/24 07:54:29;;;;;;;1.17;0.88;;;11.80;99.90;;;;;;3632388;39;20054;-89
2021/05/24 07:56:55;;;;;;;1.20;0.90;;;11.80;99.90;;;;;;3638193;39;20039;-89
2021/05/24 07:59:21;;;;;;;3.58;1.00;;;11.80;99.90;;;;;;3624316;39;20122;-88
2021/05/24 08:01:47;;;;;;;1.48;0.77;;;11.80;99.90;;;;;;3633658;39;20040;-87
2021/05/24 08:04:13;;;;;;;2.15;1.20;;;11.80;99.90;;;;;;3619434;39;20058;-88
2021/05/24 08:06:38;;;;;;;0.95;0.80;;;11.70;99.90;;;;;;3623449;39;20050;-88
2021/05/24 08:09:05;;;;;;;1.10;0.90;;;11.80;99.90;;;;;;3625941;39;20063;-86
2021/05/24 08:11:31;;;;;;;2.40;0.93;;;11.70;99.90;;;;;;3625204;39;20087;-88
2021/05/24 08:13:56;;;;;;;1.33;0.90;;;11.80;99.90;;;;;;3611596;39;20300;-88
2021/05/24 08:16:23;;;;;;;3.28;1.00;;;11.70;99.90;;;;;;3619988;39;20104;-87
2021/05/24 08:18:49;;;;;;;3.70;1.02;;;11.70;99.90;;;;;;3608488;39;20070;-88
2021/05/24 08:21:16;;;;;;;1.95;1.05;;;11.70;99.90;;;;;;3626007;39;20058;-86
2021/05/24 08:23:42;;;;;;;2.20;1.25;;;11.70;99.90;;;;;;3620604;39;20534;-89
2021/05/24 08:26:08;;;;;;;2.85;0.85;;;11.80;99.90;;;;;;3613655;39;20139;-86
2021/05/24 08:28:34;;;;;;;4.22;1.50;;;11.80;99.90;;;;;;3620413;39;20398;-88
2021/05/24 08:31:01;;;;;;;3.95;1.58;;;11.90;99.90;;;;;;3625548;39;20047;-88
2021/05/24 08:33:27;;;;;;;4.53;1.17;;;11.90;99.90;;;;;;3604737;39;20336;-87
2021/05/24 08:35:53;;;;;;;2.85;1.55;;;11.90;99.90;;;;;;3615639;39;20134;-87
2021/05/24 08:38:19;;;;;;;3.80;1.35;;;12.00;99.90;;;;;;3629104;39;20056;-87
2021/05/24 08:40:46;;;;;;;2.15;1.02;;;11.90;99.90;;;;;;3627856;39;20320;-88
2021/05/24 08:43:14;;;;;;;2.15;0.90;;;11.90;99.90;;;;;;3617962;39;20039;-88
2021/05/24 08:45:40;;;;;;;4.03;1.10;;;11.90;99.90;;;;;;3615781;39;20153;-89
2021/05/24 08:48:07;;;;;;;1.65;0.90;;;12.00;99.90;;;;;;3626698;39;20042;-88
2021/05/24 08:50:33;;;;;;;3.58;1.40;;;12.10;99.90;;;;;;3629743;39;20134;-87
2021/05/24 08:52:59;;;;;;;2.85;1.27;;;12.20;99.90;;;;;;3609972;39;20065;-88
2021/05/24 08:55:25;;;;;;;1.20;0.80;;;12.10;99.90;;;;;;3614300;39;20410;-89
2021/05/24 08:57:51;;;;;;;2.92;0.95;;;12.10;99.90;;;;;;3621983;39;20130;-87
2021/05/24 09:00:20;;;;;;;1.15;0.73;;;12.10;99.90;;;;;;3616319;39;20412;-88
2021/05/24 09:02:51;;;;;;;5.22;1.30;;;12.10;99.90;;;;;;3621712;39;20409;-88
2021/05/24 09:05:18;;;;;;;3.22;1.10;;;12.20;99.90;;;;;;3620303;39;20380;-90
2021/05/24 09:07:55;;;;;;;2.83;1.38;;;12.10;99.90;;;;;;3628239;39;20543;-88
2021/05/24 09:10:24;;;;;;;3.97;1.30;;;12.10;99.90;;;;;;3629199;39;20050;-88
2021/05/24 09:12:50;;;;;;;2.03;1.00;;;12.00;99.90;;;;;;3617663;39;20519;-88
2021/05/24 09:15:18;;;;;;;2.90;1.00;;;12.10;99.90;;;;;;3622603;39;20053;-88
2021/05/24 09:17:50;;;;;;;5.30;1.38;;;12.00;99.90;;;;;;3620558;39;20067;-88
2021/05/24 09:20:19;;;;;;;3.95;1.58;;;11.90;99.90;;;;;;3623315;39;20055;-89
2021/05/24 09:23:06;;;;;;;2.08;1.10;;;11.90;99.90;;;;;;3625262;39;20046;-89
2021/05/24 09:25:48;;;;;;;4.72;1.20;;;11.80;99.90;;;;;;3615746;39;20042;-89
2021/05/24 09:28:49;;;;;;;3.33;1.27;;;11.80;99.90;;;;;;3618399;39;20057;-89
2021/05/24 09:31:20;;;;;;;2.97;1.30;;;11.90;99.90;;;;;;3583124;39;20062;-89
2021/05/24 09:33:53;;;;;;;6.85;2.05;;;11.90;99.90;;;;;;3620180;39;20385;-89
2021/05/24 09:36:20;;;;;;;2.50;1.30;;;11.90;99.90;;;;;;3601177;39;20055;-88
2021/05/24 09:38:48;;;;;;;3.38;1.38;;;11.80;99.90;;;;;;3622571;39;20063;-88
2021/05/24 09:41:16;;;;;;;3.65;1.38;;;11.90;99.90;;;;;;3621138;39;20051;-89
2021/05/24 09:43:45;;;;;;;3.13;1.80;;;11.90;99.90;;;;;;3610203;39;20039;-88
2021/05/24 09:46:18;;;;;;;3.53;1.25;;;12.00;99.90;;;;;;3610402;39;20043;-86
2021/05/24 09:48:49;;;;;;;2.33;1.48;;;11.90;99.90;;;;;;3614868;39;20088;-87
2021/05/24 09:51:17;;;;;;;3.00;1.45;;;11.90;99.90;;;;;;3625866;39;20046;-89
2021/05/24 09:53:54;;;;;;;4.05;1.25;;;11.80;99.90;;;;;;3623372;39;20214;-88
2021/05/24 09:56:20;;;;;;;3.35;1.42;;;11.90;99.90;;;;;;3619156;39;20297;-87
2021/05/24 09:58:58;;;;;;;2.63;1.30;;;11.90;99.90;;;;;;3616010;39;20396;-90
2021/05/24 10:01:30;;;;;;;3.35;1.30;;;12.00;99.90;;;;;;3611205;39;20423;-89
2021/05/24 10:03:58;;;;;;;5.17;1.40;;;11.80;99.90;;;;;;3623870;39;20497;-88
2021/05/24 10:06:24;;;;;;;3.63;1.15;;;12.00;99.90;;;;;;3620263;39;20051;-89
2021/05/24 10:08:51;;;;;;;4.43;1.40;;;11.90;99.90;;;;;;3619969;39;20050;-86
2021/05/24 10:11:17;;;;;;;2.22;1.15;;;12.00;99.90;;;;;;3619889;39;20072;-87
2021/05/24 10:13:43;;;;;;;2.15;1.05;;;12.10;99.90;;;;;;3620946;39;20054;-88
2021/05/24 10:16:13;;;;;;;3.55;1.27;;;12.20;99.90;;;;;;3622393;39;20057;-87
2021/05/24 10:18:39;;;;;;;2.20;1.15;;;12.30;99.90;;;;;;3616386;39;20054;-86
2021/05/24 10:21:06;;;;;;;2.40;1.00;;;12.50;99.90;;;;;;3616478;39;20042;-88
2021/05/24 10:23:32;;;;;;;2.50;1.30;;;12.30;99.90;;;;;;3628981;39;20417;-89
2021/05/24 10:26:00;;;;;;;2.63;1.30;;;12.40;99.90;;;;;;3622512;39;20216;-87
2021/05/24 10:28:27;;;;;;;3.83;1.50;;;12.40;99.90;;;;;;3615501;39;20378;-87
2021/05/24 10:30:55;;;;;;;2.17;1.38;;;12.20;99.90;;;;;;3624687;39;20156;-87
2021/05/24 10:33:25;;;;;;;3.28;1.25;;;12.10;99.90;;;;;;3615534;39;20081;-86
2021/05/24 10:35:52;;;;;;;2.17;1.40;;;12.20;99.90;;;;;;3627711;39;20134;-89
2021/05/24 10:38:33;;;;;;;4.10;1.52;;;12.20;99.90;;;;;;3625347;39;20506;-89
2021/05/24 10:41:16;;;;;;;2.47;1.20;;;12.20;99.90;;;;;;3611864;39;20047;-87
2021/05/24 10:43:55;;;;;;;3.25;1.30;;;12.20;99.90;;;;;;3622805;39;20043;-87
2021/05/24 10:46:28;;;;;;;4.30;1.52;;;12.10;99.90;;;;;;3620227;39;20579;-87
2021/05/24 10:49:04;;;;;;;;;;;12.10;99.90;;;;;;3628059;39;20051;-88
2021/05/24 10:52:01;;;;;;;3.17;1.90;;;12.10;99.90;;;;;;3624131;39;20328;-87
2021/05/24 10:54:31;;;;;;;2.63;1.20;;;12.00;99.90;;;;;;3621306;39;20313;-87
2021/05/24 10:57:00;;;;;;;5.38;1.38;;;12.10;99.90;;;;;;3613971;39;20047;-85
2021/05/24 10:59:41;;;;;;;5.15;1.70;;;12.00;99.90;;;;;;3629294;39;20049;-88
2021/05/24 11:02:09;;;;;;;7.40;2.08;;;12.00;99.90;;;;;;3627908;39;20050;-89
2021/05/24 11:04:52;;;;;;;5.95;2.10;;;12.00;99.90;;;;;;3628359;39;20077;-87
2021/05/24 11:07:36;;;;;;;7.53;2.30;;;11.90;99.90;;;;;;3628959;39;20058;-87
2021/05/24 11:10:16;;;;;;;8.20;2.15;;;11.70;99.90;;;;;;3612780;39;20238;-88
2021/05/24 11:13:07;;;;;;;2.13;1.75;;;11.60;99.90;;;;;;3621307;39;20885;-87
2021/05/24 11:15:34;;;;;;;1.70;1.50;;;11.70;99.90;;;;;;3623662;39;20038;-87
2021/05/24 11:18:03;;;;;;;5.55;1.92;;;11.70;99.90;;;;;;3620095;39;20069;-88
2021/05/24 11:20:34;;;;;;;5.15;2.10;;;11.90;99.90;;;;;;3627791;39;20054;-89
2021/05/24 11:23:32;;;;;;;4.15;1.60;;;11.80;99.90;;;;;;3619651;39;20050;-88
2021/05/24 11:26:16;;;;;;;3.53;1.60;;;11.90;99.90;;;;;;3628049;39;20098;-88
2021/05/24 11:28:53;;;;;;;5.00;1.92;;;12.00;99.90;;;;;;3616395;39;20053;-87
2021/05/24 11:31:45;;;;;;;3.33;1.92;;;12.20;99.90;;;;;;3617787;39;20171;-88
2021/05/24 11:34:31;;;;;;;4.00;1.90;;;12.30;99.90;;;;;;3618710;39;20047;-89
2021/05/24 11:37:08;;;;;;;1.88;1.48;;;12.20;99.90;;;;;;3629350;39;20068;-87
2021/05/24 11:39:47;;;;;;;3.67;1.52;;;12.30;99.90;;;;;;3616791;39;20110;-88
2021/05/24 11:42:36;;;;;;;1.98;1.30;;;12.10;99.90;;;;;;3621385;39;20063;-88
2021/05/24 11:45:03;;;;;;;2.17;1.27;;;12.30;99.90;;;;;;3614720;39;20046;-87
2021/05/24 11:47:29;;;;;;;2.08;1.40;;;12.20;99.90;;;;;;3626102;39;20064;-88
2021/05/24 11:50:08;;;;;;;2.03;1.30;;;12.20;99.90;;;;;;3623184;39;20072;-87
2021/05/24 11:52:36;;;;;;;2.65;1.77;;;12.20;99.90;;;;;;3616863;39;20053;-86
2021/05/24 11:55:10;;;;;;;3.85;1.70;;;12.10;99.90;;;;;;3623194;39;20369;-87
2021/05/24 11:57:36;;;;;;;2.00;1.80;;;12.10;99.90;;;;;;3627224;39;20047;-87
2021/05/24 12:00:05;;;;;;;1.92;1.70;;;12.20;99.90;;;;;;3616683;39;20049;-88
2021/05/24 12:02:31;;;;;;;8.05;1.90;;;12.20;99.90;;;;;;3614110;39;20513;-89
2021/05/24 12:04:57;;;;;;;2.65;1.98;;;12.00;99.90;;;;;;3621793;39;20066;-88
2021/05/24 12:07:23;;;;;;;5.45;2.25;;;12.10;99.90;;;;;;3634500;39;20107;-88
2021/05/24 12:09:51;;;;;;;2.38;1.70;;;12.20;99.90;;;;;;3626882;39;20419;-88
2021/05/24 12:12:29;;;;;;;2.83;1.30;;;12.20;99.90;;;;;;3635037;39;20047;-88
2021/05/24 12:15:00;;;;;;;1.55;1.40;;;12.10;99.90;;;;;;3630300;39;20413;-89
2021/05/24 12:17:28;;;;;;;2.78;1.60;;;12.10;99.90;;;;;;3627396;39;20049;-89
2021/05/24 12:19:56;;;;;;;4.20;1.90;;;12.00;99.90;;;;;;3625779;39;20102;-88
2021/05/24 12:22:26;;;;;;;2.05;1.55;;;12.10;99.90;;;;;;3626899;39;20051;-88
2021/05/24 12:24:53;;;;;;;3.83;1.40;;;12.00;99.90;;;;;;3620644;39;20406;-88
2021/05/24 12:27:21;;;;;;;1.83;1.50;;;12.20;99.90;;;;;;3615742;39;20045;-88
2021/05/24 12:30:20;;;;;;;1.83;1.40;;;12.20;99.90;;;;;;3626264;39;20417;-89
2021/05/24 12:33:07;;;;;;;1.65;1.38;;;12.40;99.90;;;;;;3627723;39;20345;-87
2021/05/24 12:35:36;;;;;;;3.35;2.10;;;12.50;99.90;;;;;;3619062;39;20364;-86
2021/05/24 12:38:20;;;;;;;4.00;1.70;;;12.70;99.90;;;;;;3626955;39;20054;-87
2021/05/24 12:40:50;;;;;;;2.00;1.67;;;12.60;99.90;;;;;;3621810;39;20096;-87
2021/05/24 12:43:16;;;;;;;2.20;1.30;;;12.50;99.90;;;;;;3623108;39;20094;-89
2021/05/24 12:45:42;;;;;;;1.98;1.80;;;12.50;99.90;;;;;;3617647;39;20234;-87
2021/05/24 12:48:12;;;;;;;2.15;1.10;;;12.40;99.90;;;;;;3628601;39;20355;-87
2021/05/24 12:50:38;;;;;;;2.47;1.80;;;12.50;99.90;;;;;;3616690;39;20046;-88
2021/05/24 12:53:12;;;;;;;2.40;1.48;;;12.50;99.90;;;;;;3616140;39;20313;-88
2021/05/24 12:55:38;;;;;;;1.55;0.90;;;12.90;99.90;;;;;;3626748;39;20047;-87
2021/05/24 12:58:35;;;;;;;0.73;0.73;;;12.70;99.90;;;;;;3622031;39;20055;-91
2021/05/24 13:01:02;;;;;;;4.03;1.48;;;12.80;99.90;;;;;;3606779;39;20043;-88
2021/05/24 13:03:54;;;;;;;3.30;0.95;;;13.00;99.90;;;;;;3621135;39;20107;-88
2021/05/24 13:06:19;;;;;;;1.77;0.90;;;13.10;99.90;;;;;;3612150;39;20074;-87
2021/05/24 13:09:02;;;;;;;1.30;1.00;;;13.00;99.90;;;;;;3619802;39;20061;-87
2021/05/24 13:11:32;;;;;;;2.97;1.05;;;12.90;99.90;;;;;;3617355;39;20083;-89
2021/05/24 13:14:05;;;;;;;1.77;1.05;;;13.00;99.90;;;;;;3625326;39;20047;-88
2021/05/24 13:19:35;;;;;;;1.42;1.27;;;12.90;99.90;;;;;;3624233;39;20123;-88
2021/05/24 13:30:33;;;;;;;2.05;0.77;;;12.80;99.90;;;;;;3616191;39;20067;-89
2021/05/24 13:33:23;;;;;;;2.80;1.05;;;12.60;99.90;;;;;;3616452;39;20103;-88
2021/05/24 13:35:49;;;;;;;2.63;0.80;;;12.60;99.90;;;;;;3622826;39;20042;-87
2021/05/24 13:38:15;;;;;;;1.70;0.90;;;12.50;99.90;;;;;;3628723;39;20409;-90
2021/05/24 13:40:41;;;;;;;1.95;1.00;;;12.50;99.90;;;;;;3626167;39;20055;-89
2021/05/24 13:43:06;;;;;;;3.13;1.20;;;12.50;99.90;;;;;;3625493;39;20431;-86
2021/05/24 13:45:32;;;;;;;1.20;1.00;;;12.60;99.90;;;;;;3626577;39;20043;-86
2021/05/24 13:48:07;;;;;;;0.80;0.77;;;12.40;99.90;;;;;;3614009;39;20046;-88
2021/05/24 13:50:33;;;;;;;1.35;1.10;;;12.60;99.90;;;;;;3619557;39;20166;-87
2021/05/24 13:52:58;;;;;;;2.65;1.17;;;12.50;99.90;;;;;;3630719;39;20066;-88
2021/05/24 13:55:24;;;;;;;0.85;0.80;;;12.50;99.90;;;;;;3633113;39;20046;-89
2021/05/24 13:57:50;;;;;;;3.38;1.33;;;12.60;99.90;;;;;;3627260;39;20077;-86
2021/05/24 14:00:16;;;;;;;3.60;1.00;;;12.60;99.90;;;;;;3633615;39;20043;-88
2021/05/24 14:02:42;;;;;;;0.80;0.80;;;12.70;99.90;;;;;;3638019;39;20049;-89
2021/05/24 14:05:09;;;;;;;1.50;1.17;;;12.60;99.90;;;;;;3617593;39;20571;-88
2021/05/24 14:07:38;;;;;;;2.58;1.20;;;12.60;99.90;;;;;;3618299;39;20074;-87
2021/05/24 14:10:04;;;;;;;2.58;1.10;;;12.60;99.90;;;;;;3622722;39;20058;-86
2021/05/24 14:12:30;;;;;;;2.17;1.17;;;12.70;99.90;;;;;;3625309;39;20110;-88
2021/05/24 14:14:56;;;;;;;1.15;1.02;;;12.70;99.90;;;;;;3614238;39;20084;-87
2021/05/24 14:17:21;;;;;;;1.35;0.93;;;12.60;99.90;;;;;;3622974;39;20289;-87
2021/05/24 14:19:47;;;;;;;2.50;1.30;;;12.70;99.90;;;;;;3625756;39;20046;-87
2021/05/24 14:22:13;;;;;;;1.15;0.98;;;12.60;99.90;;;;;;3626561;39;20360;-85
2021/05/24 14:24:40;;;;;;;3.30;1.00;;;12.70;99.90;;;;;;3624906;39;20436;-87
2021/05/24 14:27:06;;;;;;;3.08;1.17;;;12.60;99.90;;;;;;3623008;39;20047;-86
2021/05/24 14:29:32;;;;;;;2.92;1.38;;;12.70;99.90;;;;;;3616107;39;20053;-87
2021/05/24 14:31:59;;;;;;;1.40;0.90;;;12.80;99.90;;;;;;3622421;39;20133;-87
2021/05/24 14:34:25;;;;;;;1.23;1.02;;;12.80;99.90;;;;;;3626333;39;20062;-87
2021/05/24 14:36:51;;;;;;;2.35;1.20;;;12.80;99.90;;;;;;3626283;39;20054;-86
2021/05/24 14:39:18;;;;;;;1.63;1.17;;;12.90;99.90;;;;;;3630009;39;20492;-87
2021/05/24 14:41:45;;;;;;;1.50;1.30;;;12.90;99.90;;;;;;3632343;39;20384;-86
2021/05/24 14:44:10;;;;;;;3.08;1.80;;;13.00;99.90;;;;;;3636713;39;20058;-85
2021/05/24 14:46:37;;;;;;;3.45;1.70;;;13.20;99.90;;;;;;3639777;39;20057;-87
2021/05/24 14:49:03;;;;;;;3.63;1.50;;;13.00;99.90;;;;;;3635920;39;20047;-86
2021/05/24 14:51:33;;;;;;;2.72;1.40;;;13.30;99.90;;;;;;3623632;39;20042;-87
2021/05/24 14:54:02;;;;;;;1.60;1.40;;;13.20;99.90;;;;;;3626197;39;20139;-86
2021/05/24 14:56:28;;;;;;;2.92;1.30;;;13.40;99.90;;;;;;3627125;39;20059;-86
2021/05/24 14:58:53;;;;;;;2.22;1.50;;;13.40;99.90;;;;;;3616788;39;20452;-87
2021/05/24 15:01:19;;;;;;;2.20;1.13;;;13.70;99.90;;;;;;3623774;39;20417;-87
2021/05/24 15:03:45;;;;;;;1.60;1.13;;;13.60;99.90;;;;;;3624860;39;20416;-86
2021/05/24 15:06:12;;;;;;;3.75;1.35;;;13.50;99.90;;;;;;3617434;39;20393;-87
2021/05/24 15:08:38;;;;;;;2.42;1.00;;;13.70;99.90;;;;;;3625372;39;20055;-89
2021/05/24 15:11:03;;;;;;;1.55;1.02;;;13.60;99.90;;;;;;3616005;39;20398;-88
2021/05/24 15:13:30;;;;;;;1.10;1.00;;;13.70;99.90;;;;;;3622079;39;20046;-88
2021/05/24 15:15:56;;;;;;;1.40;1.30;;;14.00;99.90;;;;;;3613285;39;20052;-86
2021/05/24 15:18:21;;;;;;;2.38;1.40;;;13.90;99.90;;;;;;3627771;39;20046;-86
2021/05/24 15:20:50;;;;;;;3.83;1.48;;;13.90;99.90;;;;;;3626879;39;20094;-87
2021/05/24 15:23:16;;;;;;;1.27;1.13;;;13.90;99.90;;;;;;3629531;39;20099;-87
2021/05/24 15:25:43;;;;;;;0.85;0.60;;;13.80;99.90;;;;;;3631303;39;20053;-87
2021/05/24 15:28:09;;;;;;;3.40;0.85;;;13.80;99.90;;;;;;3629402;39;20055;-88
2021/05/24 15:30:37;;;;;;;1.85;0.77;;;13.70;99.90;;;;;;3633488;39;20039;-86
2021/05/24 15:33:03;;;;;;;1.58;0.57;;;13.60;99.90;;;;;;3639733;39;20073;-86
2021/05/24 15:35:29;;;;;;;3.67;0.57;;;13.40;99.90;;;;;;3639871;39;20066;-87
2021/05/24 15:37:54;;;;;;;0.50;0.50;;;13.50;99.90;;;;;;3617424;39;20043;-88
2021/05/24 15:40:20;;;;;;;2.35;0.50;;;13.40;99.90;;;;;;3617262;39;20573;-85
2021/05/24 15:42:46;;;;;;;1.38;0.40;;;13.40;99.90;;;;;;3625125;39;20051;-86
2021/05/24 15:45:13;;;;;;;0.63;0.40;;;13.40;99.90;;;;;;3622048;39;20340;-87
2021/05/24 15:47:40;;;;;;;0.40;0.40;;;13.20;99.90;;;;;;3607259;39;20054;-86
2021/05/24 15:50:06;;;;;;;1.35;0.40;;;13.30;99.90;;;;;;3614106;39;20047;-88
2021/05/24 15:52:32;;;;;;;0.50;0.45;;;13.00;99.90;;;;;;3617318;39;20421;-88
2021/05/24 15:54:59;;;;;;;3.80;0.80;;;13.00;99.90;;;;;;3615363;39;20070;-86
2021/05/24 15:57:25;;;;;;;2.13;0.52;;;13.00;99.90;;;;;;3622043;39;20062;-87
2021/05/24 15:59:51;;;;;;;1.30;0.90;;;13.20;99.90;;;;;;3617394;39;20447;-88
2021/05/24 16:02:16;;;;;;;0.88;0.50;;;13.30;99.90;;;;;;3623310;39;20054;-88
2021/05/24 16:04:42;;;;;;;1.17;0.88;;;13.30;99.90;;;;;;3627017;39;20054;-89
2021/05/24 16:07:09;;;;;;;0.70;0.57;;;13.50;99.90;;;;;;3614469;39;20140;-87
2021/05/24 16:09:35;;;;;;;1.60;1.00;;;13.50;99.90;;;;;;3625565;39;20114;-87
2021/05/24 16:12:01;;;;;;;1.40;0.80;;;13.50;99.90;;;;;;3611948;39;20039;-88
2021/05/24 16:14:27;;;;;;;1.00;0.80;;;13.50;99.90;;;;;;3615557;39;20377;-87
2021/05/24 16:16:53;;;;;;;1.02;0.90;;;13.80;99.90;;;;;;3617278;39;20057;-89
2021/05/24 16:19:22;;;;;;;2.00;1.10;;;14.10;99.90;;;;;;3624761;39;20054;-89
2021/05/24 16:21:48;;;;;;;2.30;1.10;;;14.00;99.90;;;;;;3627164;39;20078;-88
2021/05/24 16:24:36;;;;;;;1.25;1.05;;;14.20;99.90;;;;;;3615840;39;20138;-89
2021/05/24 16:27:03;;;;;;;1.00;0.80;;;14.30;99.90;;;;;;3624625;39;20401;-88
2021/05/24 16:29:29;;;;;;;1.27;1.00;;;14.20;99.90;;;;;;3617346;39;20047;-89
2021/05/24 16:31:56;;;;;;;1.25;1.15;;;14.10;99.90;;;;;;3608575;39;20053;-88
2021/05/24 16:34:22;;;;;;;1.67;1.30;;;13.70;99.90;;;;;;3622143;39;20051;-87
2021/05/24 16:36:49;;;;;;;5.13;2.10;;;13.30;99.90;;;;;;3616431;39;20050;-90
2021/05/24 16:39:15;;;;;;;2.00;1.33;;;13.50;99.90;;;;;;3628507;39;20057;-88
2021/05/24 16:41:41;;;;;;;2.38;2.15;;;13.40;99.90;;;;;;3618198;39;20059;-89
2021/05/24 16:44:07;;;;;;;2.50;1.70;;;13.30;99.90;;;;;;3628639;39;20313;-88
2021/05/24 16:46:33;;;;;;;1.48;1.35;;;13.30;99.90;;;;;;3611602;39;20038;-87
2021/05/24 16:48:59;;;;;;;1.63;1.48;;;13.50;99.90;;;;;;3616810;39;20392;-89
2021/05/24 16:51:25;;;;;;;1.63;1.52;;;13.30;99.90;;;;;;3621556;39;20313;-89
2021/05/24 16:53:50;;;;;;;3.60;1.50;;;13.30;99.90;;;;;;3627339;39;20331;-88
2021/05/24 16:56:16;;;;;;;2.58;1.92;;;13.00;99.90;;;;;;3621448;39;20316;-90
2021/05/24 16:58:42;;;;;;;5.80;3.15;;;13.00;99.90;;;;;;3619956;39;20053;-89
2021/05/24 17:01:08;;;;;;;2.97;1.83;;;13.00;99.90;;;;;;3618880;39;20143;-88
2021/05/24 17:03:34;;;;;;;2.55;1.92;;;13.00;99.90;;;;;;3623054;39;20046;-88
2021/05/24 17:05:59;;;;;;;2.25;2.05;;;12.90;99.90;;;;;;3620914;39;20338;-88
2021/05/24 17:08:27;;;;;;;2.58;2.38;;;12.90;99.90;;;;;;3623266;39;20050;-88
2021/05/24 17:10:53;;;;;;;3.05;2.50;;;12.90;99.90;;;;;;3623079;39;20050;-88
2021/05/24 17:13:23;;;;;;;4.78;2.90;;;13.10;99.90;;;;;;3621224;39;20128;-89
2021/05/24 17:15:50;;;;;;;2.28;2.17;;;13.10;99.90;;;;;;3621215;39;20053;-88
2021/05/24 17:18:17;;;;;;;3.20;2.70;;;13.10;99.90;;;;;;3616315;39;20060;-88
2021/05/24 17:20:43;;;;;;;3.35;2.65;;;13.00;99.90;;;;;;3617588;39;20118;-91
2021/05/24 17:23:09;;;;;;;3.33;2.40;;;12.90;99.90;;;;;;3617581;39;20039;-89
2021/05/24 17:25:35;;;;;;;3.03;2.60;;;12.90;99.90;;;;;;3619720;39;20337;-88
2021/05/24 17:28:03;;;;;;;2.92;2.45;;;12.90;99.90;;;;;;3617651;39;20051;-89
2021/05/24 17:30:31;;;;;;;2.78;2.25;;;12.80;99.90;;;;;;3627645;39;20591;-89
2021/05/24 17:32:58;;;;;;;2.47;2.28;;;12.80;99.90;;;;;;3630353;39;20071;-87
2021/05/24 17:35:25;;;;;;;3.17;2.58;;;12.90;99.90;;;;;;3619947;39;20324;-89
2021/05/24 17:37:52;;;;;;;3.30;2.83;;;13.00;99.90;;;;;;3614313;39;20056;-88
2021/05/24 17:40:20;;;;;;;5.88;2.88;;;13.00;99.90;;;;;;3613696;39;20047;-89
2021/05/24 17:42:47;;;;;;;3.83;2.97;;;13.00;99.90;;;;;;3626277;39;20050;-88
2021/05/24 17:45:15;;;;;;;3.92;3.03;;;12.90;99.90;;;;;;3615609;39;20043;-87
2021/05/24 17:47:42;;;;;;;4.35;2.70;;;12.90;99.90;;;;;;3625668;39;20051;-88
2021/05/24 17:50:58;;;;;;;2.40;2.20;;;13.10;99.90;;;;;;3625678;39;20043;-88
2021/05/24 17:53:04;;;;;;;2.22;2.10;;;13.20;99.90;;;;;;3620594;39;20156;-88
2021/05/24 17:55:36;;;;;;;3.47;2.30;;;13.30;99.90;;;;;;3626951;39;20042;-88
2021/05/24 17:58:03;;;;;;;3.75;2.30;;;13.50;99.90;;;;;;3625451;39;20098;-88
2021/05/24 18:00:29;;;;;;;3.20;2.45;;;13.40;99.90;;;;;;3623852;39;20047;-88
2021/05/24 18:02:55;;;;;;;3.15;2.22;;;13.20;99.90;;;;;;3619364;39;20226;-88
2021/05/24 18:05:26;;;;;;;3.38;2.88;;;13.20;99.90;;;;;;3616318;39;20072;-88
2021/05/24 18:07:52;;;;;;;3.35;2.97;;;13.20;99.90;;;;;;3625030;39;20064;-88
2021/05/24 18:10:18;;;;;;;2.67;2.47;;;13.00;99.90;;;;;;3625938;39;20305;-88
2021/05/24 18:12:44;;;;;;;2.85;2.55;;;13.10;99.90;;;;;;3625635;39;20054;-87
2021/05/24 18:15:22;;;;;;;4.78;2.88;;;13.00;99.90;;;;;;3621243;39;20447;-89
2021/05/24 18:17:56;;;;;;;4.15;2.92;;;13.00;99.90;;;;;;3616268;39;20058;-89
2021/05/24 18:20:23;;;;;;;3.75;2.60;;;13.00;99.90;;;;;;3623696;39;20127;-86
2021/05/24 18:22:49;;;;;;;2.45;2.25;;;13.00;99.90;;;;;;3619025;39;20698;-87
2021/05/24 18:25:16;;;;;;;4.70;2.80;;;12.90;99.90;;;;;;3626509;39;20046;-89
2021/05/24 18:27:42;;;;;;;2.17;2.00;;;12.90;99.90;;;;;;3624305;39;20050;-87
2021/05/24 18:30:09;;;;;;;2.60;1.88;;;13.10;99.90;;;;;;3615008;39;20043;-89
2021/05/24 18:32:35;;;;;;;2.20;1.80;;;13.00;99.90;;;;;;3611963;39;20054;-89
2021/05/24 18:35:01;;;;;;;4.50;3.33;;;12.80;99.90;;;;;;3619174;39;20066;-89
2021/05/24 18:37:27;;;;;;;2.33;2.13;;;12.80;99.90;;;;;;3622748;39;20317;-88
2021/05/24 18:39:53;;;;;;;2.30;2.10;;;12.80;99.90;;;;;;3620337;39;20054;-87
2021/05/24 18:42:19;;;;;;;4.55;2.17;;;12.70;99.90;;;;;;3618149;39;20141;-88
2021/05/24 18:44:45;;;;;;;2.35;1.52;;;12.70;99.90;;;;;;3621158;39;20035;-88
2021/05/24 18:47:10;;;;;;;2.20;2.00;;;12.60;99.90;;;;;;3623159;39;20393;-88
2021/05/24 18:49:39;;;;;;;2.10;1.90;;;12.50;99.90;;;;;;3623470;39;20039;-90
2021/05/24 18:52:05;;;;;;;2.13;1.73;;;12.40;99.90;;;;;;3624052;39;20138;-88
2021/05/24 18:54:32;;;;;;;1.80;1.70;;;12.40;99.90;;;;;;3623660;39;20046;-89
2021/05/24 18:56:58;;;;;;;2.15;1.75;;;12.40;99.90;;;;;;3617549;39;20394;-88
2021/05/24 18:59:24;;;;;;;3.17;1.77;;;12.40;99.90;;;;;;3623593;39;20055;-88
2021/05/24 19:01:53;;;;;;;3.17;1.80;;;12.40;99.90;;;;;;3623364;39;20043;-88
2021/05/24 19:06:47;;;;;;;2.67;2.30;;;12.30;99.90;;;;;;3622590;39;20051;-89
2021/05/24 19:09:15;;;;;;;2.75;2.15;;;12.30;99.90;;;;;;3624678;39;20254;-89
2021/05/24 19:11:42;;;;;;;2.13;1.92;;;12.30;99.90;;;;;;3623771;39;20343;-88
2021/05/24 19:14:07;;;;;;;3.53;1.98;;;12.40;99.90;;;;;;3622998;39;20383;-88
2021/05/24 19:16:33;;;;;;;2.30;2.00;;;12.40;99.90;;;;;;3620900;39;20054;-88
2021/05/24 19:19:00;;;;;;;2.47;2.28;;;12.30;99.90;;;;;;3615995;39;20051;-89
2021/05/24 19:21:27;;;;;;;2.88;2.65;;;12.30;99.90;;;;;;3611443;39;20292;-90